| Date | Time | Temp. (oF) | Dew Point (oF) | Rel. Hum. (%) | Press. (in.) | Wind Dir. | Wind Speed (mph) | Hourly Rainfall (in.) |
|
|---|---|---|---|---|---|---|---|---|---|
| 1 | 03/26 | 00:00 | 33 | 31 | 94 | 30.08 | WSW | 0 | 0.00 |
| 2 | 03/25 | 23:00 | 34 | 31 | 91 | 30.08 | WSW | 0 | 0.00 |
| 3 | 03/25 | 22:00 | 36 | 32 | 88 | 30.08 | WSW | 0 | 0.00 |
| 4 | 03/25 | 21:00 | 37 | 32 | 84 | 30.08 | WSW | 2 | 0.00 |
| 5 | 03/25 | 20:00 | 40 | 34 | 79 | 30.06 | WSW | 1 | 0.00 |
| 6 | 03/25 | 19:00 | 43 | 34 | 73 | 30.05 | W | 2 | 0.00 |
| 7 | 03/25 | 18:00 | 44 | 35 | 71 | 30.03 | W | 2 | 0.00 |
| 8 | 03/25 | 17:00 | 45 | 36 | 73 | 30.02 | W | 4 | 0.00 |
| 9 | 03/25 | 16:00 | 45 | 37 | 76 | 29.99 | WNW | 3 | 0.00 |
| 10 | 03/25 | 15:00 | 44 | 37 | 78 | 30.01 | NW | 9 | 0.00 |
| 11 | 03/25 | 14:00 | 43 | 37 | 82 | 30.02 | NW | 6 | 0.00 |
| 12 | 03/25 | 13:00 | 44 | 36 | 76 | 30.05 | W | 6 | 0.00 |
| 13 | 03/25 | 12:00 | 44 | 37 | 78 | 30.06 | NW | 8 | 0.00 |
| 14 | 03/25 | 11:00 | 42 | 36 | 81 | 30.09 | NW | 6 | 0.00 |
| 15 | 03/25 | 10:00 | 41 | 36 | 83 | 30.10 | W | 6 | 0.00 |
| 16 | 03/25 | 09:00 | 41 | 37 | 88 | 30.10 | WSW | 3 | 0.00 |
| 17 | 03/25 | 08:00 | 40 | 37 | 90 | 30.09 | W | 4 | 0.00 |
| 18 | 03/25 | 07:00 | 39 | 36 | 91 | 30.07 | WSW | 1 | 0.00 |
| 19 | 03/25 | 06:00 | 39 | 36 | 91 | 30.04 | WNW | 0 | 0.00 |
| 20 | 03/25 | 05:00 | 39 | 36 | 92 | 30.05 | WSW | 0 | 0.00 |
| 21 | 03/25 | 04:00 | 39 | 37 | 93 | 30.05 | SSW | 2 | 0.00 |
| 22 | 03/25 | 03:00 | 39 | 36 | 92 | 30.04 | SSW | 0 | 0.00 |
| 23 | 03/25 | 02:00 | 38 | 35 | 92 | 30.06 | SSW | 2 | 0.00 |
| 24 | 03/25 | 01:00 | 39 | 36 | 89 | 30.06 | WSW | 0 | 0.00 |